sensor_id;sensor_type;location;lat;lon;timestamp;pressure;altitude;pressure_sealevel;temperature;humidity
9784;BME280;4931;44.874;-1.092;2023-07-13T00:00:27;101862.38;;;17.40;100.00
9784;BME280;4931;44.874;-1.092;2023-07-13T00:02:52;101855.78;;;17.36;100.00
9784;BME280;4931;44.874;-1.092;2023-07-13T00:05:22;101868.31;;;17.34;100.00
9784;BME280;4931;44.874;-1.092;2023-07-13T00:07:49;101866.03;;;17.36;100.00
9784;BME280;4931;44.874;-1.092;2023-07-13T00:10:15;101859.22;;;17.28;100.00
9784;BME280;4931;44.874;-1.092;2023-07-13T00:12:40;101862.53;;;17.30;100.00
9784;BME280;4931;44.874;-1.092;2023-07-13T00:15:17;101865.44;;;17.20;100.00
9784;BME280;4931;44.874;-1.092;2023-07-13T00:17:52;101857.72;;;17.17;100.00
9784;BME280;4931;44.874;-1.092;2023-07-13T00:20:19;101859.38;;;17.18;100.00
9784;BME280;4931;44.874;-1.092;2023-07-13T00:22:47;101854.97;;;17.17;100.00
9784;BME280;4931;44.874;-1.092;2023-07-13T00:25:13;101858.91;;;17.11;100.00
9784;BME280;4931;44.874;-1.092;2023-07-13T00:27:39;101858.97;;;17.05;100.00
9784;BME280;4931;44.874;-1.092;2023-07-13T00:30:05;101852.75;;;17.14;100.00
9784;BME280;4931;44.874;-1.092;2023-07-13T00:32:31;101852.75;;;17.14;100.00
9784;BME280;4931;44.874;-1.092;2023-07-13T00:34:57;101852.31;;;17.06;100.00
9784;BME280;4931;44.874;-1.092;2023-07-13T00:37:23;101852.94;;;17.03;100.00
9784;BME280;4931;44.874;-1.092;2023-07-13T00:39:49;101847.81;;;17.11;100.00
9784;BME280;4931;44.874;-1.092;2023-07-13T00:42:14;101848.56;;;16.97;100.00
9784;BME280;4931;44.874;-1.092;2023-07-13T00:44:40;101856.81;;;17.02;100.00
9784;BME280;4931;44.874;-1.092;2023-07-13T00:47:06;101860.69;;;17.01;100.00
9784;BME280;4931;44.874;-1.092;2023-07-13T00:49:33;101850.28;;;16.93;100.00
9784;BME280;4931;44.874;-1.092;2023-07-13T00:52:05;101871.38;;;16.89;100.00
9784;BME280;4931;44.874;-1.092;2023-07-13T00:54:44;101866.09;;;16.87;100.00
9784;BME280;4931;44.874;-1.092;2023-07-13T00:57:14;101864.81;;;16.80;100.00
9784;BME280;4931;44.874;-1.092;2023-07-13T00:59:43;101861.63;;;16.67;100.00
9784;BME280;4931;44.874;-1.092;2023-07-13T01:02:10;101866.66;;;16.65;100.00
9784;BME280;4931;44.874;-1.092;2023-07-13T01:04:36;101862.94;;;16.51;100.00
9784;BME280;4931;44.874;-1.092;2023-07-13T01:07:04;101864.00;;;16.55;100.00
9784;BME280;4931;44.874;-1.092;2023-07-13T01:09:31;101871.97;;;16.32;100.00
9784;BME280;4931;44.874;-1.092;2023-07-13T01:11:57;101866.91;;;16.39;100.00
9784;BME280;4931;44.874;-1.092;2023-07-13T01:14:22;101868.56;;;16.40;100.00
9784;BME280;4931;44.874;-1.092;2023-07-13T01:16:49;101867.44;;;16.41;100.00
9784;BME280;4931;44.874;-1.092;2023-07-13T01:22:24;101871.97;;;16.32;100.00
9784;BME280;4931;44.874;-1.092;2023-07-13T01:24:53;101874.16;;;16.35;100.00
9784;BME280;4931;44.874;-1.092;2023-07-13T01:27:24;101863.91;;;16.36;100.00
9784;BME280;4931;44.874;-1.092;2023-07-13T01:29:51;101886.09;;;16.31;100.00
9784;BME280;4931;44.874;-1.092;2023-07-13T01:32:23;101877.06;;;16.20;100.00
9784;BME280;4931;44.874;-1.092;2023-07-13T01:34:53;101886.56;;;16.08;100.00
9784;BME280;4931;44.874;-1.092;2023-07-13T01:37:24;101887.13;;;16.10;100.00
9784;BME280;4931;44.874;-1.092;2023-07-13T01:39:49;101892.66;;;16.10;100.00
9784;BME280;4931;44.874;-1.092;2023-07-13T01:42:15;101890.25;;;15.99;100.00
9784;BME280;4931;44.874;-1.092;2023-07-13T01:44:40;101891.97;;;15.95;100.00
9784;BME280;4931;44.874;-1.092;2023-07-13T01:47:06;101892.72;;;16.00;100.00
9784;BME280;4931;44.874;-1.092;2023-07-13T01:49:32;101893.84;;;15.99;100.00
9784;BME280;4931;44.874;-1.092;2023-07-13T01:51:57;101891.91;;;16.00;100.00
9784;BME280;4931;44.874;-1.092;2023-07-13T01:54:23;101884.41;;;16.05;100.00
9784;BME280;4931;44.874;-1.092;2023-07-13T01:56:48;101886.31;;;16.10;100.00
9784;BME280;4931;44.874;-1.092;2023-07-13T01:59:14;101885.31;;;15.96;100.00
9784;BME280;4931;44.874;-1.092;2023-07-13T02:01:39;101888.34;;;15.94;100.00
9784;BME280;4931;44.874;-1.092;2023-07-13T02:04:05;101887.25;;;15.95;100.00
9784;BME280;4931;44.874;-1.092;2023-07-13T02:06:30;101889.13;;;16.05;100.00
9784;BME280;4931;44.874;-1.092;2023-07-13T02:08:57;101860.19;;;15.87;100.00
9784;BME280;4931;44.874;-1.092;2023-07-13T02:11:22;101858.84;;;15.79;100.00
9784;BME280;4931;44.874;-1.092;2023-07-13T02:13:47;101867.47;;;15.72;100.00
9784;BME280;4931;44.874;-1.092;2023-07-13T02:16:13;101872.97;;;15.77;100.00
9784;BME280;4931;44.874;-1.092;2023-07-13T02:18:39;101867.94;;;15.85;100.00
9784;BME280;4931;44.874;-1.092;2023-07-13T02:21:04;101863.88;;;15.72;100.00
9784;BME280;4931;44.874;-1.092;2023-07-13T02:23:30;101866.91;;;15.70;100.00
9784;BME280;4931;44.874;-1.092;2023-07-13T02:25:56;101881.38;;;15.62;100.00
9784;BME280;4931;44.874;-1.092;2023-07-13T02:28:22;101866.41;;;15.68;100.00
9784;BME280;4931;44.874;-1.092;2023-07-13T02:30:48;101869.66;;;15.75;100.00
9784;BME280;4931;44.874;-1.092;2023-07-13T02:33:13;101858.13;;;15.63;100.00
9784;BME280;4931;44.874;-1.092;2023-07-13T02:35:39;101866.91;;;15.70;100.00
9784;BME280;4931;44.874;-1.092;2023-07-13T02:38:04;101864.69;;;15.72;100.00
9784;BME280;4931;44.874;-1.092;2023-07-13T02:40:30;101877.47;;;15.68;100.00
9784;BME280;4931;44.874;-1.092;2023-07-13T02:42:58;101873.28;;;15.71;100.00
9784;BME280;4931;44.874;-1.092;2023-07-13T02:45:24;101867.44;;;15.77;100.00
9784;BME280;4931;44.874;-1.092;2023-07-13T02:47:49;101877.94;;;15.75;100.00
9784;BME280;4931;44.874;-1.092;2023-07-13T02:50:15;101876.34;;;15.69;100.00
9784;BME280;4931;44.874;-1.092;2023-07-13T02:52:40;101869.66;;;15.75;100.00
9784;BME280;4931;44.874;-1.092;2023-07-13T02:55:06;101876.34;;;15.69;100.00
9784;BME280;4931;44.874;-1.092;2023-07-13T02:57:31;101881.59;;;15.71;100.00
9784;BME280;4931;44.874;-1.092;2023-07-13T02:59:59;101886.31;;;15.65;100.00
9784;BME280;4931;44.874;-1.092;2023-07-13T03:02:24;101881.88;;;15.69;100.00
9784;BME280;4931;44.874;-1.092;2023-07-13T03:04:54;101883.22;;;15.72;100.00
9784;BME280;4931;44.874;-1.092;2023-07-13T03:07:19;101878.97;;;15.50;100.00
9784;BME280;4931;44.874;-1.092;2023-07-13T03:09:45;101882.66;;;15.35;100.00
9784;BME280;4931;44.874;-1.092;2023-07-13T03:12:10;101886.53;;;15.34;100.00
9784;BME280;4931;44.874;-1.092;2023-07-13T03:14:36;101888.69;;;15.42;100.00
9784;BME280;4931;44.874;-1.092;2023-07-13T03:17:01;101886.00;;;15.27;100.00
9784;BME280;4931;44.874;-1.092;2023-07-13T03:19:27;101878.91;;;15.10;100.00
9784;BME280;4931;44.874;-1.092;2023-07-13T03:21:52;101890.47;;;15.13;100.00
9784;BME280;4931;44.874;-1.092;2023-07-13T03:24:18;101891.00;;;15.20;100.00
9784;BME280;4931;44.874;-1.092;2023-07-13T03:26:43;101885.78;;;15.13;100.00
9784;BME280;4931;44.874;-1.092;2023-07-13T03:29:08;101893.25;;;15.07;100.00
9784;BME280;4931;44.874;-1.092;2023-07-13T03:31:36;101890.81;;;15.01;100.00
9784;BME280;4931;44.874;-1.092;2023-07-13T03:34:02;101903.84;;;14.90;100.00
9784;BME280;4931;44.874;-1.092;2023-07-13T03:36:29;101904.91;;;14.99;100.00
9784;BME280;4931;44.874;-1.092;2023-07-13T03:38:59;101904.31;;;15.07;100.00
9784;BME280;4931;44.874;-1.092;2023-07-13T03:41:25;101900.72;;;15.12;100.00
9784;BME280;4931;44.874;-1.092;2023-07-13T03:43:51;101907.09;;;15.02;100.00
9784;BME280;4931;44.874;-1.092;2023-07-13T03:46:17;101905.72;;;15.05;100.00
9784;BME280;4931;44.874;-1.092;2023-07-13T03:48:45;101904.88;;;15.04;100.00
9784;BME280;4931;44.874;-1.092;2023-07-13T03:51:12;101899.91;;;15.06;100.00
9784;BME280;4931;44.874;-1.092;2023-07-13T03:53:42;101897.13;;;15.12;100.00
9784;BME280;4931;44.874;-1.092;2023-07-13T03:56:08;101897.72;;;15.03;100.00
9784;BME280;4931;44.874;-1.092;2023-07-13T03:58:36;101905.78;;;14.94;100.00
9784;BME280;4931;44.874;-1.092;2023-07-13T04:01:04;101905.53;;;14.70;100.00
9784;BME280;4931;44.874;-1.092;2023-07-13T04:03:31;101898.41;;;14.38;100.00
9784;BME280;4931;44.874;-1.092;2023-07-13T04:05:58;101919.41;;;14.24;100.00
9784;BME280;4931;44.874;-1.092;2023-07-13T04:08:28;101916.06;;;14.22;100.00
9784;BME280;4931;44.874;-1.092;2023-07-13T04:10:55;101908.91;;;14.16;100.00
9784;BME280;4931;44.874;-1.092;2023-07-13T04:13:21;101920.78;;;14.11;100.00
9784;BME280;4931;44.874;-1.092;2023-07-13T04:15:46;101918.28;;;14.09;100.00
9784;BME280;4931;44.874;-1.092;2023-07-13T04:18:12;101921.06;;;14.20;100.00
9784;BME280;4931;44.874;-1.092;2023-07-13T04:20:37;101937.06;;;14.38;100.00
9784;BME280;4931;44.874;-1.092;2023-07-13T04:23:03;101931.25;;;14.35;100.00
9784;BME280;4931;44.874;-1.092;2023-07-13T04:25:28;101928.22;;;14.36;100.00
9784;BME280;4931;44.874;-1.092;2023-07-13T04:27:54;101919.13;;;14.20;100.00
9784;BME280;4931;44.874;-1.092;2023-07-13T04:30:20;101926.28;;;14.21;100.00
9784;BME280;4931;44.874;-1.092;2023-07-13T04:32:46;101925.44;;;14.26;100.00
9784;BME280;4931;44.874;-1.092;2023-07-13T04:35:11;101931.25;;;14.14;100.00
9784;BME280;4931;44.874;-1.092;2023-07-13T04:37:37;101929.84;;;14.11;100.00
9784;BME280;4931;44.874;-1.092;2023-07-13T04:40:03;101926.00;;;14.07;100.00
9784;BME280;4931;44.874;-1.092;2023-07-13T04:42:29;101929.03;;;14.06;100.00
9784;BME280;4931;44.874;-1.092;2023-07-13T04:44:55;101938.69;;;14.08;100.00
9784;BME280;4931;44.874;-1.092;2023-07-13T04:47:20;101941.44;;;14.03;100.00
9784;BME280;4931;44.874;-1.092;2023-07-13T04:49:46;101935.94;;;14.03;100.00
9784;BME280;4931;44.874;-1.092;2023-07-13T04:52:12;101933.19;;;14.08;100.00
9784;BME280;4931;44.874;-1.092;2023-07-13T04:54:37;101934.56;;;14.11;100.00
9784;BME280;4931;44.874;-1.092;2023-07-13T04:57:04;101948.06;;;14.07;100.00
9784;BME280;4931;44.874;-1.092;2023-07-13T04:59:32;101949.75;;;14.24;100.00
9784;BME280;4931;44.874;-1.092;2023-07-13T05:01:58;101951.94;;;14.37;100.00
9784;BME280;4931;44.874;-1.092;2023-07-13T05:04:23;101950.28;;;14.26;100.00
9784;BME280;4931;44.874;-1.092;2023-07-13T05:06:49;101954.16;;;14.35;100.00
9784;BME280;4931;44.874;-1.092;2023-07-13T05:09:14;101955.81;;;14.36;100.00
9784;BME280;4931;44.874;-1.092;2023-07-13T05:11:40;101957.75;;;14.41;100.00
9784;BME280;4931;44.874;-1.092;2023-07-13T05:14:05;101958.03;;;14.44;100.00
9784;BME280;4931;44.874;-1.092;2023-07-13T05:16:31;101963.81;;;14.48;100.00
9784;BME280;4931;44.874;-1.092;2023-07-13T05:18:57;101962.44;;;14.56;100.00
9784;BME280;4931;44.874;-1.092;2023-07-13T05:21:23;101971.28;;;14.63;100.00
9784;BME280;4931;44.874;-1.092;2023-07-13T05:23:49;101972.09;;;14.58;100.00
9784;BME280;4931;44.874;-1.092;2023-07-13T05:26:14;101974.59;;;14.65;100.00
9784;BME280;4931;44.874;-1.092;2023-07-13T05:28:40;101975.69;;;14.80;100.00
9784;BME280;4931;44.874;-1.092;2023-07-13T05:31:08;101977.31;;;14.91;100.00
9784;BME280;4931;44.874;-1.092;2023-07-13T05:33:34;101976.22;;;14.92;100.00
9784;BME280;4931;44.874;-1.092;2023-07-13T05:35:59;101975.66;;;15.00;100.00
9784;BME280;4931;44.874;-1.092;2023-07-13T05:38:26;101982.22;;;15.15;100.00
9784;BME280;4931;44.874;-1.092;2023-07-13T05:40:54;101973.34;;;15.28;100.00
9784;BME280;4931;44.874;-1.092;2023-07-13T05:43:21;101978.88;;;15.23;100.00
9784;BME280;4931;44.874;-1.092;2023-07-13T05:45:47;101982.22;;;15.20;100.00
9784;BME280;4931;44.874;-1.092;2023-07-13T05:48:13;101982.38;;;15.44;100.00
9784;BME280;4931;44.874;-1.092;2023-07-13T05:50:38;101983.09;;;15.70;100.00
9784;BME280;4931;44.874;-1.092;2023-07-13T05:53:04;101983.28;;;15.95;100.00
9784;BME280;4931;44.874;-1.092;2023-07-13T05:55:30;101982.63;;;16.08;100.00
9784;BME280;4931;44.874;-1.092;2023-07-13T05:57:55;101983.81;;;16.36;100.00
9784;BME280;4931;44.874;-1.092;2023-07-13T06:00:23;101991.84;;;16.67;100.00
9784;BME280;4931;44.874;-1.092;2023-07-13T06:02:49;101986.78;;;16.74;100.00
9784;BME280;4931;44.874;-1.092;2023-07-13T06:05:15;101988.56;;;16.95;100.00
9784;BME280;4931;44.874;-1.092;2023-07-13T06:07:41;101989.25;;;17.05;100.00
9784;BME280;4931;44.874;-1.092;2023-07-13T06:10:07;101988.66;;;17.33;100.00
9784;BME280;4931;44.874;-1.092;2023-07-13T06:12:32;101991.56;;;17.66;100.00
9784;BME280;4931;44.874;-1.092;2023-07-13T06:14:57;101987.41;;;17.87;100.00
9784;BME280;4931;44.874;-1.092;2023-07-13T06:17:23;101994.69;;;18.02;100.00
9784;BME280;4931;44.874;-1.092;2023-07-13T06:19:48;101992.91;;;18.12;100.00
9784;BME280;4931;44.874;-1.092;2023-07-13T06:22:14;101997.97;;;18.42;100.00
9784;BME280;4931;44.874;-1.092;2023-07-13T06:24:39;101996.16;;;18.52;100.00
9784;BME280;4931;44.874;-1.092;2023-07-13T06:27:05;101995.09;;;18.48;100.00
9784;BME280;4931;44.874;-1.092;2023-07-13T06:29:31;102009.63;;;18.91;100.00
9784;BME280;4931;44.874;-1.092;2023-07-13T06:31:56;102003.97;;;19.11;100.00
9784;BME280;4931;44.874;-1.092;2023-07-13T06:34:22;101992.97;;;19.33;100.00
9784;BME280;4931;44.874;-1.092;2023-07-13T06:36:48;101992.88;;;19.38;100.00
9784;BME280;4931;44.874;-1.092;2023-07-13T06:39:14;102007.38;;;19.35;100.00
9784;BME280;4931;44.874;-1.092;2023-07-13T06:41:39;102009.88;;;19.23;100.00
9784;BME280;4931;44.874;-1.092;2023-07-13T06:44:05;102011.28;;;19.34;100.00
9784;BME280;4931;44.874;-1.092;2023-07-13T06:46:32;102013.13;;;19.67;100.00
9784;BME280;4931;44.874;-1.092;2023-07-13T06:48:57;102010.53;;;19.98;100.00
9784;BME280;4931;44.874;-1.092;2023-07-13T06:51:23;101999.78;;;20.28;100.00
9784;BME280;4931;44.874;-1.092;2023-07-13T06:53:48;102004.63;;;20.68;100.00
9784;BME280;4931;44.874;-1.092;2023-07-13T06:56:15;102022.81;;;20.88;100.00
9784;BME280;4931;44.874;-1.092;2023-07-13T06:58:41;102014.31;;;20.93;100.00
9784;BME280;4931;44.874;-1.092;2023-07-13T07:01:06;102013.84;;;21.00;100.00
9784;BME280;4931;44.874;-1.092;2023-07-13T07:03:32;102020.28;;;21.00;100.00
9784;BME280;4931;44.874;-1.092;2023-07-13T07:06:13;102019.00;;;20.75;100.00
9784;BME280;4931;44.874;-1.092;2023-07-13T07:08:40;102014.28;;;20.84;100.00
9784;BME280;4931;44.874;-1.092;2023-07-13T07:11:08;102027.09;;;21.26;100.00
9784;BME280;4931;44.874;-1.092;2023-07-13T07:13:34;102026.03;;;21.53;100.00
9784;BME280;4931;44.874;-1.092;2023-07-13T07:15:59;102032.44;;;21.53;100.00
9784;BME280;4931;44.874;-1.092;2023-07-13T07:18:26;102042.84;;;21.70;100.00
9784;BME280;4931;44.874;-1.092;2023-07-13T07:20:51;102040.28;;;21.83;100.00
9784;BME280;4931;44.874;-1.092;2023-07-13T07:23:17;102036.97;;;21.81;100.00
9784;BME280;4931;44.874;-1.092;2023-07-13T07:25:44;102031.75;;;21.88;100.00
9784;BME280;4931;44.874;-1.092;2023-07-13T07:28:09;102034.38;;;22.28;100.00
9784;BME280;4931;44.874;-1.092;2023-07-13T07:30:35;102047.53;;;22.54;100.00
9784;BME280;4931;44.874;-1.092;2023-07-13T07:33:01;102040.31;;;22.35;100.00
9784;BME280;4931;44.874;-1.092;2023-07-13T07:35:27;102050.50;;;22.31;100.00
9784;BME280;4931;44.874;-1.092;2023-07-13T07:37:52;102059.56;;;22.46;100.00
9784;BME280;4931;44.874;-1.092;2023-07-13T07:40:18;102052.44;;;22.75;100.00
9784;BME280;4931;44.874;-1.092;2023-07-13T07:42:44;102046.84;;;22.75;100.00
9784;BME280;4931;44.874;-1.092;2023-07-13T07:45:10;102056.53;;;22.86;100.00
9784;BME280;4931;44.874;-1.092;2023-07-13T07:47:37;102060.94;;;22.96;100.00
9784;BME280;4931;44.874;-1.092;2023-07-13T07:50:03;102061.78;;;22.87;100.00
9784;BME280;4931;44.874;-1.092;2023-07-13T07:52:29;102059.94;;;23.18;100.00
9784;BME280;4931;44.874;-1.092;2023-07-13T07:54:54;102056.97;;;23.05;100.00
9784;BME280;4931;44.874;-1.092;2023-07-13T07:57:20;102051.31;;;23.23;100.00
9784;BME280;4931;44.874;-1.092;2023-07-13T07:59:45;102061.88;;;23.09;100.00
9784;BME280;4931;44.874;-1.092;2023-07-13T08:02:11;102055.13;;;23.18;100.00
9784;BME280;4931;44.874;-1.092;2023-07-13T08:04:37;102054.34;;;23.00;100.00
9784;BME280;4931;44.874;-1.092;2023-07-13T08:07:02;102057.97;;;23.48;100.00
9784;BME280;4931;44.874;-1.092;2023-07-13T08:09:28;102057.88;;;23.66;100.00
9784;BME280;4931;44.874;-1.092;2023-07-13T08:11:54;102053.06;;;23.66;100.00
9784;BME280;4931;44.874;-1.092;2023-07-13T08:14:20;102057.47;;;23.76;100.00
9784;BME280;4931;44.874;-1.092;2023-07-13T08:16:45;102051.47;;;23.65;100.00
9784;BME280;4931;44.874;-1.092;2023-07-13T08:19:11;102052.22;;;23.75;100.00
9784;BME280;4931;44.874;-1.092;2023-07-13T08:21:37;102049.88;;;24.07;100.00
9784;BME280;4931;44.874;-1.092;2023-07-13T08:24:03;102053.72;;;24.23;100.00
9784;BME280;4931;44.874;-1.092;2023-07-13T08:26:28;102043.06;;;24.16;100.00
9784;BME280;4931;44.874;-1.092;2023-07-13T08:28:54;102038.28;;;24.50;100.00
9784;BME280;4931;44.874;-1.092;2023-07-13T08:31:19;102037.81;;;23.85;100.00
9784;BME280;4931;44.874;-1.092;2023-07-13T08:33:45;102037.19;;;23.11;100.00
9784;BME280;4931;44.874;-1.092;2023-07-13T08:36:11;102030.06;;;23.61;100.00
9784;BME280;4931;44.874;-1.092;2023-07-13T08:38:36;102032.63;;;23.75;100.00
9784;BME280;4931;44.874;-1.092;2023-07-13T08:41:11;102022.81;;;23.90;100.00
9784;BME280;4931;44.874;-1.092;2023-07-13T08:43:37;102031.56;;;24.09;100.00
9784;BME280;4931;44.874;-1.092;2023-07-13T08:48:49;102028.09;;;24.67;100.00
9784;BME280;4931;44.874;-1.092;2023-07-13T08:51:26;102026.88;;;25.01;100.00
9784;BME280;4931;44.874;-1.092;2023-07-13T08:54:00;102026.38;;;24.87;100.00
9784;BME280;4931;44.874;-1.092;2023-07-13T08:56:28;102028.06;;;25.13;100.00
9784;BME280;4931;44.874;-1.092;2023-07-13T08:59:01;102016.03;;;25.12;100.00
9784;BME280;4931;44.874;-1.092;2023-07-13T09:04:42;102017.31;;;25.27;100.00
9784;BME280;4931;44.874;-1.092;2023-07-13T09:10:18;102035.34;;;24.47;100.00
9784;BME280;4931;44.874;-1.092;2023-07-13T09:15:42;102023.03;;;25.06;100.00
9784;BME280;4931;44.874;-1.092;2023-07-13T09:18:18;102015.91;;;25.09;100.00
9784;BME280;4931;44.874;-1.092;2023-07-13T09:20:50;102014.56;;;24.94;100.00
9784;BME280;4931;44.874;-1.092;2023-07-13T09:23:21;102019.84;;;25.08;100.00
9784;BME280;4931;44.874;-1.092;2023-07-13T09:25:49;102021.47;;;24.96;100.00
9784;BME280;4931;44.874;-1.092;2023-07-13T09:28:26;102021.69;;;24.91;100.00
9784;BME280;4931;44.874;-1.092;2023-07-13T09:31:00;102021.25;;;25.01;100.00
9784;BME280;4931;44.874;-1.092;2023-07-13T09:33:26;102016.13;;;25.16;100.00
9784;BME280;4931;44.874;-1.092;2023-07-13T09:35:55;102011.44;;;25.08;100.00
9784;BME280;4931;44.874;-1.092;2023-07-13T09:38:24;102012.41;;;25.49;100.00
9784;BME280;4931;44.874;-1.092;2023-07-13T09:41:28;102013.72;;;25.92;100.00
9784;BME280;4931;44.874;-1.092;2023-07-13T09:46:38;102018.06;;;26.30;100.00
9784;BME280;4931;44.874;-1.092;2023-07-13T09:49:04;102023.28;;;26.16;100.00
9784;BME280;4931;44.874;-1.092;2023-07-13T09:51:30;102013.06;;;26.24;100.00
9784;BME280;4931;44.874;-1.092;2023-07-13T09:53:55;102009.47;;;26.67;100.00
9784;BME280;4931;44.874;-1.092;2023-07-13T09:56:31;102009.34;;;26.92;100.00
9784;BME280;4931;44.874;-1.092;2023-07-13T09:58:57;102011.00;;;26.37;100.00
9784;BME280;4931;44.874;-1.092;2023-07-13T10:01:38;102030.09;;;26.02;100.00
9784;BME280;4931;44.874;-1.092;2023-07-13T10:04:12;102025.78;;;25.93;100.00
9784;BME280;4931;44.874;-1.092;2023-07-13T10:06:40;102025.41;;;26.07;100.00
9784;BME280;4931;44.874;-1.092;2023-07-13T10:09:09;102029.84;;;26.20;100.00
9784;BME280;4931;44.874;-1.092;2023-07-13T10:11:36;102030.81;;;25.87;100.00
9784;BME280;4931;44.874;-1.092;2023-07-13T10:14:10;102027.09;;;25.83;100.00
9784;BME280;4931;44.874;-1.092;2023-07-13T10:16:36;102031.06;;;25.94;100.00
9784;BME280;4931;44.874;-1.092;2023-07-13T10:22:20;102024.91;;;26.17;100.00
9784;BME280;4931;44.874;-1.092;2023-07-13T10:24:49;102026.00;;;26.41;100.00
9784;BME280;4931;44.874;-1.092;2023-07-13T10:29:54;102020.22;;;26.21;100.00
9784;BME280;4931;44.874;-1.092;2023-07-13T10:32:24;102007.19;;;25.88;100.00
9784;BME280;4931;44.874;-1.092;2023-07-13T10:34:50;102011.66;;;25.77;100.00
9784;BME280;4931;44.874;-1.092;2023-07-13T10:37:27;102012.09;;;25.91;100.00
9784;BME280;4931;44.874;-1.092;2023-07-13T10:39:56;102004.19;;;26.22;100.00
9784;BME280;4931;44.874;-1.092;2023-07-13T10:42:38;102012.41;;;26.14;100.00
9784;BME280;4931;44.874;-1.092;2023-07-13T10:45:17;102003.88;;;26.11;100.00
9784;BME280;4931;44.874;-1.092;2023-07-13T10:47:44;102011.34;;;26.19;100.00
9784;BME280;4931;44.874;-1.092;2023-07-13T10:50:24;102008.56;;;26.07;100.00
9784;BME280;4931;44.874;-1.092;2023-07-13T10:52:55;102011.53;;;26.26;100.00
9784;BME280;4931;44.874;-1.092;2023-07-13T10:55:40;102006.03;;;26.46;100.00
9784;BME280;4931;44.874;-1.092;2023-07-13T10:58:29;102005.50;;;26.40;100.00
9784;BME280;4931;44.874;-1.092;2023-07-13T11:03:33;102009.38;;;26.35;100.00
9784;BME280;4931;44.874;-1.092;2023-07-13T11:06:33;102012.25;;;26.23;100.00
9784;BME280;4931;44.874;-1.092;2023-07-13T11:09:40;102009.03;;;25.96;100.00
9784;BME280;4931;44.874;-1.092;2023-07-13T11:15:10;102014.72;;;25.72;100.00
9784;BME280;4931;44.874;-1.092;2023-07-13T11:17:47;102009.69;;;25.65;100.00
9784;BME280;4931;44.874;-1.092;2023-07-13T11:22:51;101997.63;;;25.64;100.00
9784;BME280;4931;44.874;-1.092;2023-07-13T11:27:50;102001.06;;;25.98;100.00
9784;BME280;4931;44.874;-1.092;2023-07-13T11:36:03;101988.47;;;26.49;100.00
9784;BME280;4931;44.874;-1.092;2023-07-13T11:38:40;101985.78;;;26.24;100.00
9784;BME280;4931;44.874;-1.092;2023-07-13T11:41:17;101981.31;;;26.23;100.00
9784;BME280;4931;44.874;-1.092;2023-07-13T11:43:45;101973.69;;;26.24;100.00
9784;BME280;4931;44.874;-1.092;2023-07-13T11:46:22;101975.38;;;26.57;100.00
9784;BME280;4931;44.874;-1.092;2023-07-13T11:48:49;101982.91;;;26.81;100.00
9784;BME280;4931;44.874;-1.092;2023-07-13T11:51:31;101976.09;;;26.82;100.00
9784;BME280;4931;44.874;-1.092;2023-07-13T11:54:01;101991.56;;;26.60;100.00
9784;BME280;4931;44.874;-1.092;2023-07-13T11:56:28;101983.16;;;26.76;100.00
9784;BME280;4931;44.874;-1.092;2023-07-13T11:58:56;101981.25;;;26.80;100.00
9784;BME280;4931;44.874;-1.092;2023-07-13T12:01:26;101984.47;;;26.50;100.00
9784;BME280;4931;44.874;-1.092;2023-07-13T12:03:59;101981.25;;;26.35;100.00
9784;BME280;4931;44.874;-1.092;2023-07-13T12:06:26;101985.38;;;26.10;100.00
9784;BME280;4931;44.874;-1.092;2023-07-13T12:09:01;101987.75;;;26.24;100.00
9784;BME280;4931;44.874;-1.092;2023-07-13T12:11:29;101983.09;;;26.15;100.00
9784;BME280;4931;44.874;-1.092;2023-07-13T12:13:55;101973.69;;;26.24;100.00
9784;BME280;4931;44.874;-1.092;2023-07-13T12:16:30;101989.88;;;26.27;100.00
9784;BME280;4931;44.874;-1.092;2023-07-13T12:18:58;101982.56;;;26.54;100.00
9784;BME280;4931;44.874;-1.092;2023-07-13T12:21:34;101971.69;;;26.68;100.00
9784;BME280;4931;44.874;-1.092;2023-07-13T12:24:01;101969.88;;;27.24;100.00
9784;BME280;4931;44.874;-1.092;2023-07-13T12:26:30;101977.75;;;27.50;100.00
9784;BME280;4931;44.874;-1.092;2023-07-13T12:28:57;101981.28;;;27.63;100.00
9784;BME280;4931;44.874;-1.092;2023-07-13T12:31:30;101975.59;;;27.44;100.00
9784;BME280;4931;44.874;-1.092;2023-07-13T12:34:07;101974.00;;;27.62;100.00
9784;BME280;4931;44.874;-1.092;2023-07-13T12:36:35;101966.28;;;27.79;100.00
9784;BME280;4931;44.874;-1.092;2023-07-13T12:39:11;101968.69;;;27.77;100.00
9784;BME280;4931;44.874;-1.092;2023-07-13T12:41:38;101964.97;;;27.92;100.00
9784;BME280;4931;44.874;-1.092;2023-07-13T12:44:08;101974.19;;;28.09;100.00
9784;BME280;4931;44.874;-1.092;2023-07-13T12:46:35;101969.72;;;27.88;100.00
9784;BME280;4931;44.874;-1.092;2023-07-13T12:49:00;101970.84;;;27.48;100.00
9784;BME280;4931;44.874;-1.092;2023-07-13T12:51:32;101965.69;;;27.18;100.00
9784;BME280;4931;44.874;-1.092;2023-07-13T12:54:17;101960.06;;;27.18;100.00
9784;BME280;4931;44.874;-1.092;2023-07-13T12:56:44;101955.28;;;27.19;100.00
9784;BME280;4931;44.874;-1.092;2023-07-13T12:59:18;101958.47;;;27.01;100.00
9784;BME280;4931;44.874;-1.092;2023-07-13T13:01:45;101955.28;;;27.03;100.00
9784;BME280;4931;44.874;-1.092;2023-07-13T13:04:11;101953.13;;;27.31;100.00
9784;BME280;4931;44.874;-1.092;2023-07-13T13:06:38;101952.03;;;27.52;100.00
9784;BME280;4931;44.874;-1.092;2023-07-13T13:09:11;101953.50;;;27.46;100.00
9784;BME280;4931;44.874;-1.092;2023-07-13T13:11:37;101952.16;;;27.40;100.00
9784;BME280;4931;44.874;-1.092;2023-07-13T13:14:03;101957.53;;;27.45;100.00
9784;BME280;4931;44.874;-1.092;2023-07-13T13:16:31;101948.19;;;27.60;100.00
9784;BME280;4931;44.874;-1.092;2023-07-13T13:18:59;101945.16;;;27.69;100.00
9784;BME280;4931;44.874;-1.092;2023-07-13T13:21:27;101957.16;;;27.30;100.00
9784;BME280;4931;44.874;-1.092;2023-07-13T13:23:53;101943.53;;;27.16;100.00
9784;BME280;4931;44.874;-1.092;2023-07-13T13:26:20;101941.06;;;27.31;100.00
9784;BME280;4931;44.874;-1.092;2023-07-13T13:28:46;101935.91;;;27.88;100.00
9784;BME280;4931;44.874;-1.092;2023-07-13T13:31:13;101941.25;;;27.74;100.00
9784;BME280;4931;44.874;-1.092;2023-07-13T13:33:42;101942.25;;;27.85;100.00